Time;durP1;ratioP1;P1;durP2;ratioP2;P2;SDS_P1;SDS_P2;PMS_P1;PMS_P2;Temp;Humidity;BMP_temperature;BMP_pressure;BME280_temperature;BME280_humidity;BME280_pressure;Samples;Min_cycle;Max_cycle;Signal;HPM_P1;HPM_P2
2022/10/05 00:01:23;;;;;;;3.65;3.30;;;17.70;58.70;;;;;;5172768;27;45193;-75
2022/10/05 00:03:50;;;;;;;4.20;3.80;;;17.70;58.60;;;;;;5172107;27;45280;-75
2022/10/05 00:06:17;;;;;;;3.90;3.40;;;17.70;58.70;;;;;;5172646;27;45268;-75
2022/10/05 00:08:44;;;;;;;4.90;3.85;;;17.70;58.70;;;;;;5169511;27;46486;-75
2022/10/05 00:11:13;;;;;;;3.53;3.17;;;17.70;58.70;;;;;;5171699;27;45770;-75
2022/10/05 00:13:40;;;;;;;4.20;3.50;;;17.70;58.60;;;;;;5172070;27;45224;-75
2022/10/05 00:16:12;;;;;;;5.25;3.85;;;17.70;58.70;;;;;;5169578;27;45212;-75
2022/10/05 00:18:39;;;;;;;3.70;3.30;;;17.70;59.30;;;;;;5171958;27;45495;-75
2022/10/05 00:21:12;;;;;;;6.00;3.67;;;17.70;58.70;;;;;;5171837;27;45235;-75
2022/10/05 00:23:40;;;;;;;5.03;3.95;;;17.70;58.60;;;;;;5171713;27;45352;-75
2022/10/05 00:26:11;;;;;;;4.80;4.30;;;17.60;59.30;;;;;;5171732;27;45113;-75
2022/10/05 00:28:39;;;;;;;6.15;4.13;;;17.60;58.60;;;;;;5171584;27;45573;-75
2022/10/05 00:31:10;;;;;;;4.18;3.25;;;17.60;58.60;;;;;;5168725;27;45197;-75
2022/10/05 00:33:37;;;;;;;5.00;3.85;;;17.60;58.70;;;;;;5171609;27;45274;-75
2022/10/05 00:36:06;;;;;;;4.97;4.03;;;17.60;58.60;;;;;;5171652;27;45256;-75
2022/10/05 00:38:33;;;;;;;4.18;3.75;;;17.60;58.70;;;;;;5171300;27;45215;-75
2022/10/05 00:41:03;;;;;;;4.90;3.70;;;17.60;58.70;;;;;;5171149;27;45233;-75
2022/10/05 00:44:02;;;;;;;5.35;4.32;;;17.60;58.80;;;;;;5170987;27;45290;-75
2022/10/05 00:46:32;;;;;;;5.00;3.97;;;17.50;58.70;;;;;;5170815;27;45220;-75
2022/10/05 00:49:02;;;;;;;5.80;4.43;;;17.60;58.70;;;;;;5170309;27;45249;-75
2022/10/05 00:51:29;;;;;;;4.75;3.88;;;17.60;58.70;;;;;;5170885;27;45245;-74
2022/10/05 00:54:07;;;;;;;4.13;3.70;;;17.50;58.70;;;;;;5170127;27;45344;-75
2022/10/05 00:56:48;;;;;;;7.55;4.10;;;17.50;58.70;;;;;;5171112;27;45387;-75
2022/10/05 00:59:20;;;;;;;6.85;4.50;;;17.50;58.70;;;;;;5170629;27;46476;-75
2022/10/05 01:01:50;;;;;;;9.23;4.25;;;17.50;58.70;;;;;;5170909;27;45187;-75
2022/10/05 01:04:20;;;;;;;5.93;4.10;;;17.50;58.70;;;;;;5170754;27;45370;-74
2022/10/05 01:06:54;;;;;;;5.60;4.30;;;17.50;58.70;;;;;;5170195;27;45375;-75
2022/10/05 01:09:25;;;;;;;5.95;4.70;;;17.50;58.80;;;;;;5169713;27;45306;-75
2022/10/05 01:11:54;;;;;;;6.55;4.57;;;17.50;58.80;;;;;;5170271;27;45241;-75
2022/10/05 01:14:25;;;;;;;7.05;4.95;;;17.50;58.70;;;;;;5150820;27;45281;-75
2022/10/05 01:16:54;;;;;;;6.78;4.65;;;17.40;58.70;;;;;;5149815;27;45402;-75
2022/10/05 01:19:31;;;;;;;6.53;4.65;;;17.40;58.70;;;;;;5149110;27;45311;-75
2022/10/05 01:22:09;;;;;;;6.50;5.10;;;17.40;58.70;;;;;;5149373;27;45236;-75
2022/10/05 01:24:42;;;;;;;6.43;4.80;;;17.40;58.70;;;;;;5149321;27;45185;-75
2022/10/05 01:27:18;;;;;;;7.25;4.90;;;17.40;58.70;;;;;;5149488;27;45231;-75
2022/10/05 01:29:49;;;;;;;9.38;4.72;;;17.40;58.80;;;;;;5146204;27;45245;-75
2022/10/05 01:32:19;;;;;;;7.32;5.25;;;17.40;58.70;;;;;;5148209;27;45417;-75
2022/10/05 01:34:48;;;;;;;7.22;4.90;;;17.40;58.70;;;;;;5147880;27;45195;-75
2022/10/05 01:37:18;;;;;;;6.47;5.40;;;17.40;58.70;;;;;;5168694;27;45351;-75
2022/10/05 01:39:48;;;;;;;6.88;4.90;;;17.30;58.70;;;;;;5169682;27;46472;-75
2022/10/05 01:42:19;;;;;;;7.18;5.13;;;17.30;58.70;;;;;;5169944;27;45213;-74
2022/10/05 01:44:51;;;;;;;7.25;5.25;;;17.30;58.80;;;;;;5169953;27;45265;-74
2022/10/05 01:47:20;;;;;;;7.88;5.40;;;17.30;58.80;;;;;;5169905;27;45452;-74
2022/10/05 01:49:50;;;;;;;7.22;5.18;;;17.30;58.80;;;;;;5168713;27;46422;-74
2022/10/05 01:52:23;;;;;;;8.43;5.53;;;17.30;58.90;;;;;;5168802;27;45228;-75
2022/10/05 01:54:56;;;;;;;8.00;5.15;;;17.30;58.80;;;;;;5168856;27;45397;-75
2022/10/05 01:57:28;;;;;;;8.48;5.63;;;17.30;58.80;;;;;;5166400;27;45367;-75
2022/10/05 02:00:02;;;;;;;8.20;5.57;;;17.30;58.80;;;;;;5168651;27;46598;-75
2022/10/05 02:02:29;;;;;;;7.70;5.78;;;17.30;58.80;;;;;;5168677;27;45260;-75
2022/10/05 02:04:57;;;;;;;7.72;5.90;;;17.20;58.80;;;;;;5171495;27;45206;-75
2022/10/05 02:07:26;;;;;;;7.05;5.22;;;17.30;58.80;;;;;;5172762;27;45289;-75
2022/10/05 02:09:54;;;;;;;8.95;5.55;;;17.20;58.80;;;;;;5172220;27;45643;-75
2022/10/05 02:12:22;;;;;;;7.85;5.18;;;17.20;58.80;;;;;;5172513;27;45241;-75
2022/10/05 02:14:49;;;;;;;6.63;5.30;;;17.20;58.80;;;;;;5172851;27;45391;-75
2022/10/05 02:17:19;;;;;;;7.55;5.00;;;17.20;58.80;;;;;;5172697;27;45295;-75
2022/10/05 02:19:47;;;;;;;6.68;5.13;;;17.20;58.80;;;;;;5172125;27;46660;-75
2022/10/05 02:22:16;;;;;;;8.18;5.35;;;17.20;58.90;;;;;;5172171;27;45297;-75
2022/10/05 02:24:44;;;;;;;7.38;4.72;;;17.20;58.80;;;;;;5172404;27;45204;-75
2022/10/05 02:27:11;;;;;;;7.10;4.88;;;17.20;58.80;;;;;;5172582;27;45188;-75
2022/10/05 02:29:41;;;;;;;6.95;4.93;;;17.10;58.80;;;;;;5172057;27;45369;-75
2022/10/05 02:32:10;;;;;;;7.05;4.50;;;17.10;58.70;;;;;;5172144;27;45233;-75
2022/10/05 02:34:39;;;;;;;7.60;5.32;;;17.10;58.90;;;;;;5172011;27;45197;-75
2022/10/05 02:37:19;;;;;;;6.25;4.50;;;17.20;58.80;;;;;;5172466;27;45441;-75
2022/10/05 02:39:51;;;;;;;6.63;4.72;;;17.10;58.80;;;;;;5171803;27;46889;-75
2022/10/05 02:42:22;;;;;;;7.18;5.05;;;17.10;58.80;;;;;;5169146;27;45313;-75
2022/10/05 02:44:52;;;;;;;7.53;4.95;;;17.10;58.70;;;;;;5172071;27;45332;-75
2022/10/05 02:47:22;;;;;;;8.60;5.47;;;17.20;58.80;;;;;;5172039;27;45198;-75
2022/10/05 02:49:52;;;;;;;6.65;4.88;;;17.20;58.80;;;;;;5171697;27;46672;-75
2022/10/05 02:52:21;;;;;;;7.68;4.63;;;17.10;58.70;;;;;;5168983;27;45211;-75
2022/10/05 02:54:52;;;;;;;6.18;4.93;;;17.10;58.70;;;;;;5171731;27;45195;-75
2022/10/05 02:57:22;;;;;;;6.97;4.63;;;17.10;58.70;;;;;;5171912;27;45191;-74
2022/10/05 02:59:52;;;;;;;6.45;4.65;;;17.10;58.70;;;;;;5168897;27;45250;-75
2022/10/05 03:02:21;;;;;;;5.70;4.35;;;17.10;58.80;;;;;;5171655;27;45248;-74
2022/10/05 03:04:55;;;;;;;6.82;4.65;;;17.10;58.80;;;;;;5171641;27;45202;-74
2022/10/05 03:07:23;;;;;;;6.38;4.80;;;17.10;58.70;;;;;;5171880;27;45176;-75
2022/10/05 03:09:55;;;;;;;5.20;4.20;;;17.10;59.20;;;;;;5171331;27;45236;-75
2022/10/05 03:12:30;;;;;;;6.10;4.65;;;17.10;58.70;;;;;;5171479;27;45237;-75
2022/10/05 03:15:00;;;;;;;5.53;4.20;;;17.10;58.60;;;;;;5171165;27;45227;-75
2022/10/05 03:17:28;;;;;;;5.72;4.45;;;17.10;58.60;;;;;;5171312;27;45282;-75
2022/10/05 03:20:09;;;;;;;6.80;4.43;;;17.10;58.60;;;;;;5171211;27;45316;-75
2022/10/05 03:22:45;;;;;;;5.90;4.70;;;17.00;58.60;;;;;;5171232;27;45309;-75
2022/10/05 03:25:30;;;;;;;5.90;3.65;;;17.00;58.70;;;;;;5171420;27;45421;-75
2022/10/05 03:28:00;;;;;;;6.78;4.50;;;17.00;58.70;;;;;;5171364;27;45391;-75
2022/10/05 03:30:26;;;;;;;5.50;4.03;;;16.90;58.70;;;;;;5170889;27;48635;-75
2022/10/05 03:32:57;;;;;;;6.10;4.07;;;17.00;58.80;;;;;;5171101;27;45253;-75
2022/10/05 03:35:29;;;;;;;6.68;4.35;;;17.00;58.70;;;;;;5171029;27;45248;-75
2022/10/05 03:38:01;;;;;;;5.97;3.90;;;16.90;58.70;;;;;;5171320;27;45436;-74
2022/10/05 03:40:31;;;;;;;5.65;4.22;;;16.90;58.80;;;;;;5170798;27;45203;-74
2022/10/05 03:43:06;;;;;;;5.55;3.85;;;16.90;58.80;;;;;;5171084;27;45293;-74
2022/10/05 03:45:35;;;;;;;6.13;3.75;;;16.90;58.80;;;;;;5171170;27;45326;-75
2022/10/05 03:48:05;;;;;;;5.57;3.92;;;16.90;58.80;;;;;;5170732;27;45384;-74
2022/10/05 03:50:40;;;;;;;4.90;3.88;;;16.90;58.80;;;;;;5170671;27;45512;-75
2022/10/05 03:53:10;;;;;;;5.55;4.25;;;16.90;58.80;;;;;;5170796;27;44785;-75
2022/10/05 03:55:40;;;;;;;5.63;3.75;;;16.90;58.70;;;;;;5170752;27;45233;-75
2022/10/05 03:58:10;;;;;;;5.32;3.75;;;16.90;58.60;;;;;;5173169;27;45556;-75
2022/10/05 04:00:37;;;;;;;5.32;3.95;;;16.90;58.60;;;;;;5170449;27;46651;-75
2022/10/05 04:03:05;;;;;;;5.53;3.90;;;16.90;58.50;;;;;;5167824;27;45287;-75
2022/10/05 04:05:33;;;;;;;4.93;3.80;;;16.90;58.60;;;;;;5170689;27;45350;-74
2022/10/05 04:08:02;;;;;;;5.25;3.78;;;16.90;59.10;;;;;;5170811;27;45446;-75
2022/10/05 04:10:31;;;;;;;5.00;3.78;;;16.90;58.50;;;;;;5170354;27;46260;-75
2022/10/05 04:12:59;;;;;;;5.88;3.70;;;16.90;58.40;;;;;;5170349;27;45331;-75
2022/10/05 04:15:29;;;;;;;4.80;3.65;;;16.90;58.50;;;;;;5170488;27;45124;-75
2022/10/05 04:17:58;;;;;;;4.47;3.65;;;16.90;58.50;;;;;;5170765;27;45277;-75
2022/10/05 04:20:26;;;;;;;5.55;3.70;;;16.90;58.50;;;;;;5170239;27;46458;-74
2022/10/05 04:22:56;;;;;;;4.38;3.60;;;16.90;58.40;;;;;;5170341;27;45208;-74
2022/10/05 04:25:26;;;;;;;5.63;4.00;;;16.90;58.40;;;;;;5170235;27;45304;-74
2022/10/05 04:27:55;;;;;;;5.00;4.05;;;16.90;58.50;;;;;;5169044;27;45235;-75
2022/10/05 04:30:22;;;;;;;4.60;3.75;;;16.90;58.40;;;;;;5170040;27;45715;-74
2022/10/05 04:32:50;;;;;;;4.55;3.95;;;16.90;58.40;;;;;;5170058;27;45436;-74
2022/10/05 04:35:30;;;;;;;4.28;3.08;;;16.80;58.30;;;;;;5170033;27;45209;-74
2022/10/05 04:38:00;;;;;;;4.85;3.47;;;16.80;58.30;;;;;;5170363;27;45391;-74
2022/10/05 04:40:39;;;;;;;5.38;3.20;;;16.80;58.40;;;;;;5169965;27;45447;-74
2022/10/05 04:43:09;;;;;;;4.63;3.17;;;16.80;58.40;;;;;;5169937;27;45339;-74
2022/10/05 04:45:43;;;;;;;4.28;3.45;;;16.80;58.40;;;;;;5169944;27;45193;-75
2022/10/05 04:48:25;;;;;;;4.18;3.03;;;16.80;58.40;;;;;;5169964;27;45125;-74
2022/10/05 04:50:58;;;;;;;4.47;3.40;;;16.80;58.40;;;;;;5169663;27;45439;-75
2022/10/05 04:53:30;;;;;;;4.93;3.10;;;16.70;58.40;;;;;;5169791;27;45244;-75
2022/10/05 04:55:59;;;;;;;4.55;3.58;;;16.80;58.40;;;;;;5169793;27;45234;-74
2022/10/05 04:58:34;;;;;;;6.55;3.88;;;16.80;58.40;;;;;;5169990;27;45288;-75
2022/10/05 05:01:07;;;;;;;4.55;3.47;;;16.70;58.40;;;;;;5169393;27;46943;-75
2022/10/05 05:03:53;;;;;;;4.22;3.25;;;16.70;58.40;;;;;;5169528;27;45241;-74
2022/10/05 05:06:26;;;;;;;5.68;3.55;;;16.70;58.40;;;;;;5169858;27;45467;-75
2022/10/05 05:09:05;;;;;;;3.53;2.83;;;16.70;58.40;;;;;;5169894;27;45226;-75
2022/10/05 05:11:35;;;;;;;4.70;3.38;;;16.70;58.40;;;;;;5169380;27;45291;-75
2022/10/05 05:14:33;;;;;;;4.85;3.22;;;16.70;58.40;;;;;;5169445;27;45262;-74
2022/10/05 05:17:07;;;;;;;2.97;2.65;;;16.70;58.40;;;;;;5169581;27;45431;-74
2022/10/05 05:19:39;;;;;;;3.55;2.88;;;16.70;58.40;;;;;;5169644;27;45503;-74
2022/10/05 05:22:08;;;;;;;3.75;2.95;;;16.60;58.30;;;;;;5169237;27;45226;-74
2022/10/05 05:24:40;;;;;;;3.90;2.92;;;16.70;58.40;;;;;;5169357;27;45182;-75
2022/10/05 05:27:24;;;;;;;4.65;3.20;;;16.70;58.40;;;;;;5166733;27;45261;-74
2022/10/05 05:29:55;;;;;;;3.80;3.08;;;16.70;58.40;;;;;;5148503;27;45256;-74
2022/10/05 05:32:26;;;;;;;3.40;2.90;;;16.70;58.40;;;;;;5148059;27;45290;-75
2022/10/05 05:35:03;;;;;;;3.28;2.97;;;16.60;58.40;;;;;;5148138;27;45270;-75
2022/10/05 05:37:32;;;;;;;4.10;3.22;;;16.60;58.40;;;;;;5145493;27;45323;-75
2022/10/05 05:40:05;;;;;;;3.50;2.85;;;16.60;58.40;;;;;;5148024;27;45496;-75
2022/10/05 05:42:38;;;;;;;3.83;3.25;;;16.60;58.40;;;;;;5147988;27;45508;-74
2022/10/05 05:45:08;;;;;;;5.05;2.53;;;16.60;58.40;;;;;;5147744;27;45250;-75
2022/10/05 05:47:36;;;;;;;3.92;3.00;;;16.60;59.00;;;;;;5147775;27;45334;-74
2022/10/05 05:50:12;;;;;;;4.15;2.88;;;16.60;58.40;;;;;;5148029;27;45532;-74
2022/10/05 05:52:41;;;;;;;2.90;2.58;;;16.60;58.40;;;;;;5147659;27;46390;-74
2022/10/05 05:55:13;;;;;;;3.05;2.53;;;16.60;58.40;;;;;;5147680;27;45313;-74
2022/10/05 05:57:43;;;;;;;3.53;2.45;;;16.60;58.30;;;;;;5147850;27;45357;-75
2022/10/05 06:00:18;;;;;;;3.97;3.20;;;16.60;58.40;;;;;;5148193;27;45457;-75
2022/10/05 06:02:47;;;;;;;3.70;2.95;;;16.50;58.30;;;;;;5147525;27;45377;-75
2022/10/05 06:05:36;;;;;;;4.32;2.80;;;16.60;58.40;;;;;;5151846;27;45250;-74
2022/10/05 06:08:07;;;;;;;4.10;2.78;;;16.50;58.30;;;;;;5162861;27;45252;-74
2022/10/05 06:10:40;;;;;;;3.47;2.65;;;16.60;58.40;;;;;;5166166;27;45178;-74
2022/10/05 06:13:12;;;;;;;4.13;2.80;;;16.60;58.30;;;;;;5168403;27;45415;-74
2022/10/05 06:15:40;;;;;;;2.67;2.47;;;16.50;58.30;;;;;;5168324;27;45259;-74
2022/10/05 06:18:10;;;;;;;3.72;3.35;;;16.50;58.30;;;;;;5168694;27;45238;-74
2022/10/05 06:20:38;;;;;;;4.10;2.88;;;16.50;58.30;;;;;;5168710;27;45277;-74
2022/10/05 06:23:07;;;;;;;3.92;3.00;;;16.50;58.30;;;;;;5168220;27;45383;-74
2022/10/05 06:25:37;;;;;;;4.55;2.80;;;16.50;58.30;;;;;;5168377;27;45283;-74
2022/10/05 06:28:10;;;;;;;3.70;3.25;;;16.50;58.30;;;;;;5168573;27;45303;-74
2022/10/05 06:30:51;;;;;;;3.13;2.65;;;16.50;58.30;;;;;;5168979;27;45291;-75
2022/10/05 06:33:23;;;;;;;3.67;3.05;;;16.50;58.40;;;;;;5168219;27;45444;-74
2022/10/05 06:35:57;;;;;;;5.20;2.92;;;16.50;58.30;;;;;;5168107;27;45289;-75
2022/10/05 06:39:21;;;;;;;3.08;2.42;;;16.50;58.30;;;;;;5168268;27;45402;-74
2022/10/05 06:41:59;;;;;;;3.25;2.63;;;16.50;58.30;;;;;;5062935;28;45669;-74
2022/10/05 06:44:30;;;;;;;2.72;2.20;;;16.50;58.30;;;;;;5151177;27;47908;-74
2022/10/05 06:47:00;;;;;;;3.03;2.40;;;16.50;58.30;;;;;;5153377;27;45458;-73
2022/10/05 06:49:29;;;;;;;4.10;2.50;;;16.50;58.40;;;;;;5147215;27;45200;-73
2022/10/05 06:51:57;;;;;;;3.85;2.58;;;16.50;58.40;;;;;;5149824;27;45245;-73
2022/10/05 06:54:38;;;;;;;4.95;2.63;;;16.50;58.40;;;;;;5150496;27;47429;-72
2022/10/05 06:57:08;;;;;;;3.47;2.50;;;16.60;58.40;;;;;;5153252;27;45271;-73
2022/10/05 06:59:40;;;;;;;6.25;2.53;;;16.60;58.40;;;;;;5150577;27;45297;-74
2022/10/05 07:02:09;;;;;;;7.75;2.38;;;16.60;58.30;;;;;;5150759;27;45309;-73
2022/10/05 07:04:51;;;;;;;2.90;2.60;;;16.60;58.40;;;;;;5150235;27;46669;-73
2022/10/05 07:07:21;;;;;;;2.97;2.65;;;16.60;58.30;;;;;;5161051;27;45298;-74
2022/10/05 07:09:54;;;;;;;4.18;2.47;;;16.60;58.30;;;;;;5171488;27;45218;-74
2022/10/05 07:12:36;;;;;;;2.95;2.50;;;16.60;58.20;;;;;;5171526;27;45137;-74
2022/10/05 07:15:24;;;;;;;3.88;2.40;;;16.60;58.20;;;;;;5171089;27;45408;-73
2022/10/05 07:17:57;;;;;;;3.47;2.67;;;16.60;58.10;;;;;;5171230;27;45266;-74
2022/10/05 07:20:27;;;;;;;3.42;2.40;;;16.60;58.10;;;;;;5171473;27;45270;-73
2022/10/05 07:23:06;;;;;;;2.55;2.35;;;16.60;58.20;;;;;;5171330;27;45403;-72
2022/10/05 07:25:36;;;;;;;2.95;2.50;;;16.70;58.30;;;;;;5171126;27;46748;-73
2022/10/05 07:28:05;;;;;;;3.33;2.78;;;16.70;58.20;;;;;;5171079;27;45287;-73
2022/10/05 07:30:35;;;;;;;4.47;2.55;;;16.70;58.20;;;;;;5167697;27;45268;-73
2022/10/05 07:33:08;;;;;;;2.85;2.40;;;16.70;58.10;;;;;;5166800;27;45552;-73
2022/10/05 07:38:26;;;;;;;2.92;2.55;;;16.70;58.80;;;;;;5152994;27;45263;-73
2022/10/05 07:40:54;;;;;;;3.28;2.53;;;16.70;58.20;;;;;;5150041;27;45307;-73
2022/10/05 07:43:27;;;;;;;3.88;2.70;;;16.70;58.20;;;;;;5156094;27;45171;-73
2022/10/05 07:45:58;;;;;;;5.55;2.25;;;16.70;58.20;;;;;;5149539;27;45250;-72
2022/10/05 07:48:27;;;;;;;3.88;2.63;;;16.80;58.20;;;;;;5149422;27;45291;-73
2022/10/05 07:50:59;;;;;;;3.30;2.17;;;16.80;58.20;;;;;;5156808;27;45324;-73
2022/10/05 07:53:34;;;;;;;2.85;2.47;;;16.80;58.30;;;;;;5151064;27;45189;-73
2022/10/05 07:56:03;;;;;;;3.05;2.33;;;16.80;58.30;;;;;;5150062;27;48482;-72
2022/10/05 07:58:32;;;;;;;3.10;2.50;;;16.80;58.30;;;;;;5150627;27;45302;-72
2022/10/05 08:01:06;;;;;;;3.40;2.53;;;16.80;58.30;;;;;;5150496;27;45264;-71
2022/10/05 08:03:40;;;;;;;2.60;2.10;;;16.80;58.40;;;;;;5153295;27;45209;-71
2022/10/05 08:06:07;;;;;;;3.05;2.50;;;16.90;58.50;;;;;;5158637;27;46528;-72
2022/10/05 08:08:38;;;;;;;3.22;2.58;;;16.90;58.60;;;;;;5155951;27;45517;-71
2022/10/05 08:11:07;;;;;;;2.35;2.10;;;16.90;59.40;;;;;;5164035;27;45240;-71
2022/10/05 08:13:37;;;;;;;4.43;2.22;;;16.90;58.80;;;;;;5150678;27;45269;-71
2022/10/05 08:16:11;;;;;;;2.78;2.33;;;17.00;59.00;;;;;;5152047;27;45352;-72
2022/10/05 08:18:44;;;;;;;2.78;1.85;;;17.00;59.20;;;;;;5159772;27;45322;-71
2022/10/05 08:21:11;;;;;;;2.13;1.92;;;17.00;59.70;;;;;;5159221;27;45188;-71
2022/10/05 08:23:41;;;;;;;2.80;2.42;;;17.00;59.80;;;;;;5160969;27;45247;-71
2022/10/05 08:26:15;;;;;;;2.20;2.00;;;17.10;60.00;;;;;;5167390;27;45427;-71
2022/10/05 08:28:45;;;;;;;2.55;2.00;;;17.10;60.20;;;;;;5161175;27;45280;-71
2022/10/05 08:31:18;;;;;;;3.03;2.00;;;17.10;60.40;;;;;;5150166;27;45356;-71
2022/10/05 08:33:51;;;;;;;3.60;2.13;;;17.20;60.70;;;;;;5150391;27;45176;-72
2022/10/05 08:36:19;;;;;;;2.13;1.90;;;17.20;60.80;;;;;;5156949;27;45364;-71
2022/10/05 08:38:46;;;;;;;2.15;1.95;;;17.20;61.00;;;;;;5156709;27;45450;-71
2022/10/05 08:41:43;;;;;;;2.88;1.90;;;17.30;61.20;;;;;;5158988;27;45368;-72
2022/10/05 08:44:45;;;;;;;1.80;1.63;;;17.30;61.10;;;;;;5160577;27;45452;-72
2022/10/05 08:47:36;;;;;;;2.13;1.85;;;17.40;61.30;;;;;;5156590;27;45741;-72
2022/10/05 08:50:14;;;;;;;2.75;1.85;;;17.40;61.40;;;;;;5158818;27;45435;-71
2022/10/05 08:52:52;;;;;;;4.50;1.63;;;17.50;61.60;;;;;;5154516;27;45566;-71
2022/10/05 08:55:38;;;;;;;2.28;1.80;;;17.50;61.40;;;;;;5150541;27;45440;-72
2022/10/05 08:58:46;;;;;;;1.80;1.52;;;17.50;61.40;;;;;;5159108;27;45390;-73
2022/10/05 09:01:20;;;;;;;2.25;1.42;;;17.60;61.30;;;;;;5088286;27;45396;-72
2022/10/05 09:04:29;;;;;;;1.85;1.63;;;17.60;61.40;;;;;;5158744;27;45381;-72
2022/10/05 09:07:25;;;;;;;3.17;1.70;;;17.70;61.50;;;;;;5167908;27;45241;-71
2022/10/05 09:10:13;;;;;;;1.88;1.42;;;17.80;61.40;;;;;;5140827;27;46582;-72
2022/10/05 09:13:18;;;;;;;1.75;1.58;;;17.80;61.20;;;;;;5148870;27;45324;-72
2022/10/05 09:16:17;;;;;;;1.50;1.27;;;17.90;61.70;;;;;;5148932;27;45310;-71
2022/10/05 09:19:45;;;;;;;1.75;1.40;;;17.90;61.20;;;;;;5149642;27;45433;-71
2022/10/05 09:22:16;;;;;;;2.95;1.50;;;18.00;61.50;;;;;;5170008;27;45453;-72
2022/10/05 09:24:54;;;;;;;1.35;1.25;;;18.10;62.10;;;;;;5170055;27;45252;-72
2022/10/05 09:27:41;;;;;;;1.15;1.00;;;18.10;61.30;;;;;;5155789;27;45382;-72
2022/10/05 09:30:25;;;;;;;2.20;1.40;;;18.20;61.10;;;;;;5148949;27;45492;-71
2022/10/05 09:33:33;;;;;;;1.70;1.38;;;18.20;61.10;;;;;;5161974;27;45727;-72
2022/10/05 09:36:29;;;;;;;3.35;1.30;;;18.30;61.40;;;;;;5168547;27;45266;-72
2022/10/05 09:39:27;;;;;;;2.63;1.08;;;18.30;61.40;;;;;;5165624;27;45277;-72
2022/10/05 09:42:26;;;;;;;1.20;1.10;;;18.40;61.10;;;;;;5094637;27;45280;-72
2022/10/05 09:45:11;;;;;;;1.35;1.10;;;18.40;61.20;;;;;;5158423;27;45273;-73
2022/10/05 09:47:46;;;;;;;1.15;1.13;;;18.50;61.10;;;;;;5169281;27;45302;-72
2022/10/05 09:50:38;;;;;;;3.05;1.10;;;18.50;60.80;;;;;;5163405;27;45323;-73
2022/10/05 09:53:09;;;;;;;1.05;1.02;;;18.60;60.70;;;;;;5156395;27;45525;-72
2022/10/05 09:56:04;;;;;;;1.00;1.00;;;18.60;60.80;;;;;;5169043;27;45468;-72
2022/10/05 09:58:55;;;;;;;0.85;0.85;;;18.70;60.70;;;;;;5166767;27;45270;-72
2022/10/05 10:01:27;;;;;;;0.90;0.90;;;18.70;60.50;;;;;;5154272;27;45697;-73
2022/10/05 10:04:08;;;;;;;2.13;1.05;;;18.80;60.30;;;;;;5161366;27;45230;-72
2022/10/05 10:06:50;;;;;;;1.27;1.10;;;18.80;60.10;;;;;;5161215;27;45469;-73
2022/10/05 10:09:24;;;;;;;1.08;0.77;;;18.90;60.00;;;;;;5153744;27;45385;-73
2022/10/05 10:12:03;;;;;;;1.48;0.88;;;18.90;59.80;;;;;;5160254;27;45262;-72
2022/10/05 10:15:00;;;;;;;2.97;0.90;;;19.00;59.60;;;;;;5158142;27;45483;-74
2022/10/05 10:17:49;;;;;;;2.10;0.90;;;19.00;59.50;;;;;;5151464;27;46636;-73
2022/10/05 10:20:24;;;;;;;0.82;0.77;;;19.10;59.30;;;;;;5144563;27;45331;-73
2022/10/05 10:23:08;;;;;;;1.05;0.73;;;19.20;59.10;;;;;;5163160;27;45357;-73
2022/10/05 10:25:58;;;;;;;0.80;0.73;;;19.20;58.90;;;;;;5153163;27;45429;-74
2022/10/05 10:28:41;;;;;;;1.58;0.95;;;19.30;58.80;;;;;;5153025;27;45365;-74
2022/10/05 10:31:17;;;;;;;1.30;0.88;;;19.40;58.30;;;;;;5155614;27;45401;-74
2022/10/05 10:34:07;;;;;;;1.17;0.80;;;19.40;58.00;;;;;;5140065;27;45268;-75
2022/10/05 10:36:58;;;;;;;0.77;0.77;;;19.50;58.30;;;;;;5151996;27;45521;-74
2022/10/05 10:39:29;;;;;;;1.42;0.90;;;19.60;57.50;;;;;;5151382;27;45286;-73
2022/10/05 10:42:18;;;;;;;0.80;0.80;;;19.70;57.50;;;;;;5158228;27;45245;-73
2022/10/05 10:45:05;;;;;;;0.80;0.80;;;19.80;57.40;;;;;;5158634;27;45406;-76
2022/10/05 10:47:53;;;;;;;1.30;0.63;;;19.80;57.30;;;;;;5171426;27;45478;-76
2022/10/05 10:51:00;;;;;;;1.70;0.80;;;19.90;57.10;;;;;;5162650;27;46939;-76
2022/10/05 10:53:50;;;;;;;0.98;0.65;;;20.00;56.80;;;;;;5113416;27;45368;-76
2022/10/05 10:56:46;;;;;;;1.02;0.60;;;20.10;56.70;;;;;;5163269;27;45369;-76
2022/10/05 10:59:51;;;;;;;0.77;0.60;;;20.20;56.50;;;;;;5167598;27;45404;-76
2022/10/05 11:02:26;;;;;;;1.17;0.80;;;20.30;56.40;;;;;;5143602;27;45448;-73
2022/10/05 11:05:14;;;;;;;2.35;0.75;;;20.40;56.40;;;;;;5171952;27;45148;-75
2022/10/05 11:07:59;;;;;;;0.57;0.57;;;20.40;55.90;;;;;;5171225;27;45202;-76
2022/10/05 11:10:54;;;;;;;2.05;0.90;;;20.50;55.40;;;;;;5172228;27;45236;-76
2022/10/05 11:13:31;;;;;;;1.38;0.90;;;20.60;55.20;;;;;;5172302;27;45448;-74
2022/10/05 11:16:28;;;;;;;2.15;0.70;;;20.70;55.30;;;;;;5172087;27;45424;-75
2022/10/05 11:19:20;;;;;;;0.65;0.65;;;20.80;55.10;;;;;;5172654;27;45292;-77
2022/10/05 11:21:53;;;;;;;0.70;0.70;;;20.80;55.30;;;;;;5172553;27;45310;-77
2022/10/05 11:24:54;;;;;;;0.70;0.70;;;20.90;55.40;;;;;;5172123;27;46650;-74
2022/10/05 11:27:42;;;;;;;1.35;0.60;;;20.90;55.20;;;;;;5168620;27;45286;-76
2022/10/05 11:30:35;;;;;;;0.70;0.70;;;21.00;55.40;;;;;;5172212;27;45194;-77
2022/10/05 11:33:30;;;;;;;0.63;0.63;;;21.00;55.40;;;;;;5172297;27;45618;-76
2022/10/05 11:36:26;;;;;;;0.70;0.70;;;21.10;55.40;;;;;;5094258;27;45428;-75
2022/10/05 11:39:25;;;;;;;0.80;0.73;;;21.10;55.60;;;;;;5149691;27;45262;-75
2022/10/05 11:42:33;;;;;;;0.70;0.70;;;21.20;55.70;;;;;;5136666;27;45533;-75
2022/10/05 11:45:29;;;;;;;0.98;0.90;;;21.20;55.70;;;;;;5171940;27;45514;-75
2022/10/05 11:48:16;;;;;;;0.65;0.65;;;21.30;55.50;;;;;;5148340;27;47562;-75
2022/10/05 11:50:45;;;;;;;1.45;0.80;;;21.30;55.50;;;;;;5128629;27;45482;-75
2022/10/05 11:53:15;;;;;;;0.70;0.70;;;21.40;55.50;;;;;;5171995;27;45228;-75
2022/10/05 11:55:43;;;;;;;1.17;0.95;;;21.40;55.30;;;;;;5151086;27;45440;-75
2022/10/05 11:58:13;;;;;;;0.88;0.80;;;21.40;55.40;;;;;;5157901;27;45487;-75
2022/10/05 12:00:41;;;;;;;0.63;0.63;;;21.50;55.40;;;;;;5156684;27;45370;-75
2022/10/05 12:03:36;;;;;;;1.17;0.90;;;21.50;55.20;;;;;;5160037;27;45185;-75
2022/10/05 12:06:22;;;;;;;1.17;0.70;;;21.60;55.20;;;;;;5156852;27;45551;-75
2022/10/05 12:08:56;;;;;;;0.88;0.80;;;21.60;55.00;;;;;;5150074;27;46575;-75
2022/10/05 12:11:32;;;;;;;1.02;0.82;;;21.70;55.20;;;;;;5160324;27;45348;-75
2022/10/05 12:14:00;;;;;;;2.30;1.02;;;21.70;55.90;;;;;;5158695;27;45205;-77
2022/10/05 12:16:30;;;;;;;2.53;1.30;;;21.80;56.40;;;;;;5167182;27;45182;-77
2022/10/05 12:18:59;;;;;;;2.97;1.10;;;21.90;56.30;;;;;;5159461;27;45415;-77
2022/10/05 12:21:31;;;;;;;0.88;0.80;;;22.00;55.70;;;;;;5150254;27;45198;-77
2022/10/05 12:24:02;;;;;;;1.10;0.95;;;22.10;55.70;;;;;;5158442;27;45238;-78
2022/10/05 12:26:31;;;;;;;2.45;1.33;;;22.10;55.60;;;;;;5160765;27;45486;-77
2022/10/05 12:29:01;;;;;;;1.50;1.02;;;22.20;55.40;;;;;;5164888;27;45497;-75
2022/10/05 12:31:34;;;;;;;3.08;0.85;;;22.20;55.80;;;;;;5150517;27;45611;-75
2022/10/05 12:34:05;;;;;;;1.52;1.00;;;22.30;55.40;;;;;;5165056;27;45180;-76
2022/10/05 12:36:35;;;;;;;1.55;1.00;;;22.40;55.20;;;;;;5158554;27;45330;-74
2022/10/05 12:39:06;;;;;;;0.80;0.80;;;22.40;55.60;;;;;;5149894;27;46798;-75
2022/10/05 12:41:35;;;;;;;2.22;1.27;;;22.50;55.10;;;;;;5168887;27;45853;-75
2022/10/05 12:44:10;;;;;;;1.50;0.90;;;22.50;54.90;;;;;;5161294;27;45405;-75
2022/10/05 12:46:41;;;;;;;0.82;0.82;;;22.60;55.10;;;;;;5170237;27;45241;-74
2022/10/05 12:49:27;;;;;;;2.35;0.68;;;22.60;55.00;;;;;;5169305;27;45214;-75
2022/10/05 12:51:56;;;;;;;4.63;1.05;;;22.70;55.10;;;;;;5166235;27;45194;-75
2022/10/05 12:54:31;;;;;;;2.05;0.90;;;22.70;54.80;;;;;;5159404;27;45323;-76
2022/10/05 12:57:01;;;;;;;1.35;1.00;;;22.80;54.90;;;;;;5149511;27;45457;-75
2022/10/05 12:59:35;;;;;;;1.23;0.80;;;22.80;54.80;;;;;;5149221;27;46336;-74
2022/10/05 13:02:04;;;;;;;1.15;0.90;;;22.80;54.70;;;;;;5156748;27;45452;-75
2022/10/05 13:04:38;;;;;;;1.27;0.90;;;22.90;54.90;;;;;;5149805;27;45250;-74
2022/10/05 13:07:18;;;;;;;1.25;0.93;;;22.90;54.60;;;;;;5167863;27;45470;-75
2022/10/05 13:09:49;;;;;;;2.47;1.08;;;23.00;54.80;;;;;;5165350;27;45541;-74
2022/10/05 13:12:19;;;;;;;1.42;1.00;;;23.00;54.70;;;;;;5161569;27;45591;-74
2022/10/05 13:14:54;;;;;;;1.48;0.90;;;23.00;54.50;;;;;;5167905;27;45388;-74
2022/10/05 13:17:23;;;;;;;1.17;1.08;;;23.10;54.30;;;;;;5170729;27;45430;-77
2022/10/05 13:19:52;;;;;;;1.33;1.10;;;23.10;54.30;;;;;;5154334;27;47671;-74
2022/10/05 13:22:25;;;;;;;3.60;1.02;;;23.20;54.40;;;;;;5146610;27;45344;-74
2022/10/05 13:24:58;;;;;;;2.33;1.00;;;23.20;54.10;;;;;;5156606;27;45350;-74
2022/10/05 13:27:27;;;;;;;4.25;1.17;;;23.20;54.40;;;;;;5154983;27;45319;-74
2022/10/05 13:29:57;;;;;;;3.92;1.20;;;23.30;54.10;;;;;;5149123;27;45310;-74
2022/10/05 13:32:24;;;;;;;22.35;2.28;;;23.30;54.20;;;;;;5166623;27;45139;-74
2022/10/05 13:34:55;;;;;;;8.90;1.77;;;23.30;54.10;;;;;;5170436;27;45228;-74